Currently 48°F in Anza, California, USA
48°F
54°F / 44°F
3 mph W
0.00"
Tuesday, September 26, 2017 5:40 AM PDT

Anza, California Weather Summary
Last 36 Hours

Temperature Winds Hourly Humidity Dewpoint
Time Report Norm Report Norm Max Gusts Precip. Rpt. Norm Rpt. Norm Pressure
1Tue 05:40 AM  48.1°F  56°F  3 mph W  4 mph  4 mph  0.00"  49%  68%  29°F  45°F  N/A
Tue 05:00 AM  47.0°F  56°F  calm  4 mph  5 mph  0.00"  51%  69%  29°F  45°F  N/A
Tue 04:00 AM  44.9°F  56°F  calm  3 mph  4 mph  0.00"  52%  68%  28°F  46°F  N/A
3Tue 03:53 AM  44.4°F  57°F  3 mph NW  3 mph  4 mph  ----  53%  68%  27°F  46°F  N/A
Tue 03:00 AM  46.8°F  56°F  calm  4 mph  5 mph  0.00"  49%  69%  28°F  46°F  N/A
2Tue 02:18 AM  53.5°F  57°F  calm  4 mph  5 mph  ----  41%  69%  30°F  46°F  N/A
Tue 02:00 AM  51.4°F  57°F  4 mph NE  4 mph  6 mph  0.00"  44%  68%  29°F  46°F  N/A
Tue 01:00 AM  47.8°F  58°F  2 mph W  4 mph  5 mph  0.00"  48%  68%  28°F  47°F  N/A
Tue 12:00 AM  49.9°F  59°F  4 mph NE  4 mph  6 mph  0.00"  46%  68%  29°F  47°F  N/A
Mon 11:00 PM  51.0°F  60°F  2 mph SW  5 mph  8 mph  0.00"  46%  66%  30°F  48°F  N/A
Mon 10:00 PM  50.1°F  61°F  2 mph NW  5 mph  4 mph  0.00"  50%  64%  31°F  48°F  N/A
Mon 09:00 PM  57.3°F  63°F  3 mph NW  4 mph  7 mph  0.00"  41%  62%  33°F  49°F  N/A
Mon 08:00 PM  59.6°F  65°F  4 mph NE  5 mph  6 mph  0.00"  39%  57%  33°F  49°F  N/A
Mon 07:00 PM  64.0°F  69°F  3 mph W  6 mph  9 mph  0.00"  33%  51%  33°F  50°F  N/A
Mon 06:00 PM  71.4°F  74°F  5 mph NW  9 mph  11 mph  0.00"  25%  42%  32°F  49°F  N/A
Mon 05:00 PM  73.8°F  77°F  6 mph E  10 mph  13 mph  0.00"  19%  37%  27°F  48°F  N/A
Mon 04:00 PM  75.9°F  79°F  8 mph E  9 mph  14 mph  0.00"  17%  34%  26°F  48°F  N/A
Mon 03:00 PM  75.4°F  80°F  8 mph E  10 mph  15 mph  0.00"  17%  33%  26°F  47°F  N/A
Mon 02:00 PM  74.4°F  80°F  9 mph E  10 mph  15 mph  0.00"  17%  32%  25°F  46°F  N/A
Mon 01:00 PM  72.4°F  80°F  5 mph NE  9 mph  18 mph  0.00"  18%  32%  25°F  46°F  N/A
Mon 12:00 PM  72.2°F  79°F  11 mph E  9 mph  21 mph  0.00"  19%  33%  26°F  46°F  N/A
Mon 11:00 AM  69.9°F  77°F  5 mph E  9 mph  20 mph  0.00"  20%  35%  26°F  46°F  N/A
Mon 10:00 AM  68.1°F  75°F  12 mph NE  8 mph  23 mph  0.00"  22%  38%  27°F  47°F  N/A
Mon 09:00 AM  64.4°F  72°F  13 mph NE  6 mph  23 mph  0.00"  25%  44%  27°F  48°F  N/A
Mon 08:00 AM  61.6°F  65°F  12 mph NE  5 mph  25 mph  0.00"  27%  58%  26°F  49°F  N/A
Mon 07:00 AM  60.2°F  56°F  12 mph NE  3 mph  24 mph  0.00"  28%  70%  25°F  46°F  N/A
Mon 06:00 AM  59.7°F  56°F  5 mph NE  3 mph  17 mph  0.00"  28%  70%  25°F  46°F  N/A
Mon 05:00 AM  58.8°F  56°F  9 mph NE  3 mph  17 mph  0.00"  30%  70%  26°F  46°F  N/A
Mon 04:00 AM  56.1°F  57°F  8 mph NE  3 mph  10 mph  0.00"  33%  70%  26°F  47°F  N/A
Mon 03:00 AM  46.8°F  57°F  2 mph NE  4 mph  5 mph  0.00"  44%  70%  25°F  47°F  N/A
Mon 02:00 AM  55.1°F  57°F  3 mph E  4 mph  8 mph  0.00"  34%  70%  26°F  47°F  N/A
Mon 01:00 AM  49.3°F  58°F  4 mph NE  4 mph  8 mph  0.00"  45%  70%  28°F  48°F  N/A
Mon 12:00 AM  47.4°F  59°F  calm  4 mph  7 mph  0.00"  50%  69%  29°F  48°F  N/A
Sun 11:00 PM  52.2°F  60°F  3 mph NE  5 mph  6 mph  0.00"  43%  68%  29°F  49°F  N/A
Sun 10:00 PM  52.0°F  61°F  calm  5 mph  6 mph  0.00"  43%  65%  29°F  49°F  N/A
Sun 09:00 PM  55.1°F  63°F  5 mph E  4 mph  5 mph  0.00"  40%  63%  30°F  50°F  N/A
Sun 08:00 PM  57.7°F  65°F  calm  5 mph  7 mph  0.00"  36%  59%  30°F  50°F  N/A
Sun 07:00 PM  63.4°F  69°F  3 mph NE  6 mph  12 mph  0.00"  30%  52%  30°F  51°F  N/A
Sun 06:00 PM  67.9°F  75°F  5 mph NE  9 mph  15 mph  0.00"  26%  43%  31°F  50°F  N/A

  1. Current weather data. No green row appears if the current weather data is also the high or low for the current day.
  2. High temperature for the current day.
  3. Low temperature for the current day.

The Anza, California weather pages are a service of WeatherCurrents. The Anza Valley is southwestern Riverside County, east of Temecula and Aguanga, south of Mount San Jacinto and west of Mount Santa Rosa.
Copyright ©Tue Sep 26 05:40:51 PDT 2017  WeatherCurrents. All rights reserved. - Submit questions and comments - Privacy Policy

This page automatically refreshes every 10 minutes.